Time;durP1;ratioP1;P1;durP2;ratioP2;P2;SDS_P1;SDS_P2;PMS_P1;PMS_P2;Temp;Humidity;BMP_temperature;BMP_pressure;BME280_temperature;BME280_humidity;BME280_pressure;Samples;Min_cycle;Max_cycle;Signal;HPM_P1;HPM_P2
2022/01/07 00:00:16;;;;;;;1.20;0.70;;;-3.40;96.30;;;;;;4954426;29;20433;-75
2022/01/07 00:02:45;;;;;;;4.03;1.10;;;-3.40;96.30;;;;;;4954205;29;20442;-76
2022/01/07 00:05:11;;;;;;;2.03;1.10;;;-3.50;96.30;;;;;;4954046;29;20814;-76
2022/01/07 00:07:37;;;;;;;2.00;0.77;;;-3.40;96.30;;;;;;4954171;29;20841;-75
2022/01/07 00:10:05;;;;;;;9.77;1.10;;;-3.50;96.30;;;;;;4955213;29;20755;-76
2022/01/07 00:12:31;;;;;;;6.60;1.20;;;-3.50;96.30;;;;;;4956968;29;20490;-76
2022/01/07 00:14:56;;;;;;;1.60;0.83;;;-3.40;96.30;;;;;;4960197;29;20411;-77
2022/01/07 00:17:22;;;;;;;3.00;1.03;;;-3.50;96.30;;;;;;4954257;29;20178;-76
2022/01/07 00:19:48;;;;;;;2.03;0.80;;;-3.50;96.30;;;;;;4936944;29;20182;-75
2022/01/07 00:22:13;;;;;;;1.30;0.90;;;-3.40;96.30;;;;;;4953508;29;20202;-75
2022/01/07 00:24:39;;;;;;;1.73;0.90;;;-3.40;96.30;;;;;;4953919;29;20175;-76
2022/01/07 00:27:04;;;;;;;1.30;0.87;;;-3.30;96.30;;;;;;4936940;29;20613;-75
2022/01/07 00:29:30;;;;;;;2.33;0.70;;;-3.30;96.30;;;;;;4932159;29;20184;-75
2022/01/07 00:31:55;;;;;;;3.43;1.10;;;-3.20;96.30;;;;;;4934833;29;20199;-75
2022/01/07 00:34:21;;;;;;;3.27;0.60;;;-3.20;96.30;;;;;;4917593;29;20179;-76
2022/01/07 00:36:46;;;;;;;3.50;0.70;;;-3.20;96.30;;;;;;4934880;29;20176;-75
2022/01/07 00:39:12;;;;;;;2.80;1.00;;;-3.20;96.30;;;;;;4918077;29;20688;-75
2022/01/07 00:41:37;;;;;;;2.07;0.90;;;-3.20;96.30;;;;;;4934656;29;20202;-75
2022/01/07 00:44:04;;;;;;;3.03;1.40;;;-3.20;96.30;;;;;;4917674;29;20191;-79
2022/01/07 00:46:29;;;;;;;1.33;0.70;;;-3.40;96.30;;;;;;4917885;29;20585;-78
2022/01/07 00:48:55;;;;;;;2.80;0.90;;;-3.50;96.30;;;;;;4917674;29;20511;-75
2022/01/07 00:51:21;;;;;;;1.50;0.90;;;-3.50;96.30;;;;;;4934499;29;20284;-75
2022/01/07 00:53:46;;;;;;;1.97;0.93;;;-3.50;96.30;;;;;;4934598;29;20182;-75
2022/01/07 00:56:13;;;;;;;3.10;1.20;;;-3.50;96.30;;;;;;4934686;29;20251;-75
2022/01/07 00:58:38;;;;;;;2.20;1.23;;;-3.70;96.30;;;;;;4934549;29;20168;-75
2022/01/07 05:01:54;;;;;;;3.33;1.40;;;-2.10;96.30;;;;;;5217459;23;20514;-75
2022/01/07 05:04:20;;;;;;;4.60;1.23;;;-2.10;96.30;;;;;;4937897;29;20494;-76
2022/01/07 05:06:45;;;;;;;1.00;0.77;;;-2.20;96.30;;;;;;4937136;29;20554;-75
2022/01/07 05:09:20;;;;;;;4.37;1.30;;;-2.10;96.30;;;;;;4938459;29;20227;-76
2022/01/07 05:11:47;;;;;;;6.10;2.03;;;-2.20;96.30;;;;;;4938358;29;20290;-77
2022/01/07 05:14:13;;;;;;;1.83;1.33;;;-2.20;96.30;;;;;;4937684;29;20412;-75
2022/01/07 05:16:40;;;;;;;3.37;2.00;;;-2.30;96.30;;;;;;4940874;29;20416;-75
2022/01/07 05:19:05;;;;;;;1.73;1.23;;;-2.20;96.30;;;;;;4928229;29;20916;-75
2022/01/07 05:21:31;;;;;;;4.77;1.40;;;-2.10;96.30;;;;;;4918131;29;20455;-75
2022/01/07 05:23:57;;;;;;;2.13;1.07;;;-2.10;96.30;;;;;;4901746;29;20244;-75
2022/01/07 05:26:22;;;;;;;1.73;1.00;;;-2.10;96.30;;;;;;4919010;29;20455;-76
2022/01/07 05:28:50;;;;;;;2.60;1.13;;;-2.10;96.30;;;;;;4919169;29;20260;-76
2022/01/07 05:31:16;;;;;;;5.73;1.67;;;-2.10;96.30;;;;;;4919080;29;20275;-74
2022/01/07 05:33:42;;;;;;;3.53;1.70;;;-2.20;96.30;;;;;;4918561;29;20413;-75
2022/01/07 05:36:07;;;;;;;7.83;1.67;;;-2.20;96.30;;;;;;4933388;29;20434;-75
2022/01/07 05:38:33;;;;;;;2.23;1.70;;;-2.20;96.30;;;;;;4942587;29;20176;-75
2022/01/07 06:48:18;;;;;;;10.03;2.67;;;-2.10;96.30;;;;;;5558817;23;20495;-75
2022/01/07 06:50:44;;;;;;;5.83;2.40;;;-2.20;96.30;;;;;;4915982;29;20444;-75
2022/01/07 06:53:10;;;;;;;4.73;2.17;;;-2.20;96.30;;;;;;4899822;29;20424;-75
2022/01/07 06:55:36;;;;;;;4.80;2.60;;;-2.30;96.30;;;;;;4917119;29;20420;-75
2022/01/07 06:58:01;;;;;;;8.73;2.80;;;-2.20;96.30;;;;;;4901430;29;20188;-77
2022/01/07 07:00:26;;;;;;;6.73;2.87;;;-2.20;96.30;;;;;;4909870;29;20204;-76
2022/01/07 07:02:52;;;;;;;4.50;3.20;;;-2.10;96.30;;;;;;4901986;29;20193;-75
2022/01/07 07:05:18;;;;;;;5.97;3.80;;;-2.20;96.30;;;;;;4880868;29;20177;-77
2022/01/07 07:07:43;;;;;;;12.37;3.83;;;-2.10;96.30;;;;;;4896967;29;20228;-75
2022/01/07 07:10:09;;;;;;;4.80;2.50;;;-2.10;96.30;;;;;;4881109;29;20566;-75
2022/01/07 07:12:34;;;;;;;9.37;4.30;;;-2.10;96.30;;;;;;4881084;29;20257;-75
2022/01/07 07:15:00;;;;;;;5.87;2.70;;;-2.10;96.30;;;;;;4880614;29;20276;-76
2022/01/07 07:17:25;;;;;;;5.43;3.03;;;-2.10;96.30;;;;;;4880849;29;20272;-75
2022/01/07 07:19:51;;;;;;;7.47;3.50;;;-2.10;96.30;;;;;;4880917;29;20649;-75
2022/01/07 07:22:17;;;;;;;6.87;2.60;;;-2.20;96.30;;;;;;4880898;29;20295;-75
2022/01/07 07:24:42;;;;;;;3.73;2.27;;;-2.30;96.30;;;;;;4880709;29;20245;-77
2022/01/07 07:27:08;;;;;;;4.43;2.33;;;-2.30;96.30;;;;;;4897511;29;20576;-75
2022/01/07 07:29:33;;;;;;;4.33;2.37;;;-2.30;96.30;;;;;;4880945;29;20697;-75
2022/01/07 07:32:03;;;;;;;5.93;2.30;;;-2.20;96.30;;;;;;4897369;29;20189;-75
2022/01/07 07:34:45;;;;;;;7.20;2.33;;;-2.20;96.30;;;;;;4898524;29;20180;-75
2022/01/07 07:37:13;;;;;;;4.27;1.97;;;-2.20;96.30;;;;;;4910662;29;20433;-77
2022/01/07 07:39:39;;;;;;;3.77;2.43;;;-2.30;96.30;;;;;;4898509;29;20433;-75
2022/01/07 07:42:05;;;;;;;5.17;1.90;;;-2.40;96.30;;;;;;4906067;29;20457;-75
2022/01/07 07:44:30;;;;;;;3.63;1.80;;;-2.60;96.30;;;;;;4915722;29;20412;-75
2022/01/07 07:46:57;;;;;;;6.53;2.40;;;-2.50;96.30;;;;;;4916346;29;20555;-75
2022/01/07 07:49:23;;;;;;;11.40;3.97;;;-2.40;96.30;;;;;;4916249;29;20184;-78
2022/01/07 07:51:51;;;;;;;8.77;3.90;;;-2.40;96.30;;;;;;4916442;29;20949;-75
2022/01/07 07:54:17;;;;;;;11.33;3.80;;;-2.30;96.30;;;;;;4915985;29;20705;-78
2022/01/07 07:56:43;;;;;;;10.43;3.37;;;-2.40;96.30;;;;;;4914070;29;20511;-75
2022/01/07 07:59:08;;;;;;;10.40;2.70;;;-2.40;96.30;;;;;;4897182;29;20476;-75
2022/01/07 08:01:36;;;;;;;6.00;2.53;;;-2.30;96.30;;;;;;4897431;29;20232;-75
2022/01/07 08:04:01;;;;;;;6.50;3.87;;;-2.10;96.30;;;;;;4896046;29;20181;-78
2022/01/07 08:06:27;;;;;;;5.80;3.90;;;-2.00;96.30;;;;;;4895900;29;20467;-75
2022/01/07 08:08:52;;;;;;;5.83;3.20;;;-2.00;96.30;;;;;;4895792;29;20181;-76
2022/01/07 08:11:18;;;;;;;12.23;5.53;;;-2.00;96.30;;;;;;4895831;29;20249;-76
2022/01/07 08:16:28;;;;;;;10.30;4.50;;;-1.70;96.30;;;;;;4897142;29;20192;-77
2022/01/07 08:18:56;;;;;;;4.03;2.27;;;-1.60;96.30;;;;;;4896992;29;20421;-75
2022/01/07 08:21:25;;;;;;;4.43;2.73;;;-1.50;96.30;;;;;;4895824;29;20214;-78
2022/01/07 08:23:53;;;;;;;5.40;2.70;;;-1.40;96.30;;;;;;4896618;29;20424;-76
2022/01/07 08:26:19;;;;;;;4.20;2.17;;;-1.20;96.30;;;;;;4895445;29;20417;-76
2022/01/07 08:28:50;;;;;;;4.80;2.40;;;-1.20;96.30;;;;;;4897058;29;20418;-78
2022/01/07 08:36:28;;;;;;;3.80;2.30;;;-0.90;96.30;;;;;;4910020;29;20427;-78
2022/01/07 08:38:55;;;;;;;6.33;2.37;;;-0.80;96.30;;;;;;4898553;29;20420;-76
2022/01/07 08:41:25;;;;;;;4.73;2.40;;;-0.70;96.30;;;;;;4898568;29;20444;-78
2022/01/07 08:43:51;;;;;;;3.10;1.93;;;-0.70;96.30;;;;;;4879909;29;20505;-75
2022/01/07 08:46:16;;;;;;;7.43;2.13;;;-0.60;96.30;;;;;;4896877;29;20457;-75
2022/01/07 08:48:43;;;;;;;5.90;2.70;;;-0.70;96.30;;;;;;4880028;29;20197;-76
2022/01/07 08:51:09;;;;;;;5.33;3.10;;;-0.60;96.30;;;;;;4896833;29;20917;-76
2022/01/07 08:53:36;;;;;;;3.33;2.07;;;-0.50;96.30;;;;;;4879752;29;20786;-75
2022/01/07 08:56:02;;;;;;;4.03;2.10;;;-0.60;96.30;;;;;;4893689;29;20431;-78
2022/01/07 08:58:27;;;;;;;3.50;2.27;;;-0.50;96.30;;;;;;4901629;29;20417;-79
2022/01/07 09:00:53;;;;;;;7.70;3.00;;;-0.50;96.30;;;;;;4880358;29;20526;-79
2022/01/07 09:03:19;;;;;;;7.03;2.53;;;-0.40;96.30;;;;;;4897205;29;20184;-78
2022/01/07 09:05:44;;;;;;;6.43;2.30;;;-0.30;96.30;;;;;;4896609;29;20181;-77
2022/01/07 09:08:12;;;;;;;5.90;2.60;;;-0.30;96.30;;;;;;4885162;29;20460;-77
2022/01/07 09:10:38;;;;;;;4.07;2.27;;;-0.20;96.30;;;;;;4912871;29;20216;-77
2022/01/07 09:13:04;;;;;;;8.70;2.37;;;-0.30;96.30;;;;;;4906404;29;20491;-75
2022/01/07 09:15:29;;;;;;;6.30;2.77;;;-0.20;96.30;;;;;;4897838;29;20417;-77
2022/01/07 09:17:55;;;;;;;7.23;3.00;;;-0.20;96.30;;;;;;4908800;29;20590;-77
2022/01/07 09:20:21;;;;;;;4.00;2.30;;;-0.20;96.30;;;;;;4896735;29;20630;-76
2022/01/07 09:22:47;;;;;;;5.67;2.20;;;-0.10;96.30;;;;;;4891444;29;20583;-77
2022/01/07 09:25:13;;;;;;;6.30;2.63;;;-0.10;96.30;;;;;;4913727;29;20420;-76
2022/01/07 09:27:40;;;;;;;4.20;2.50;;;-0.10;96.30;;;;;;4908726;29;20881;-76
2022/01/07 09:30:07;;;;;;;3.27;2.07;;;-0.20;96.30;;;;;;4908408;29;20177;-78
2022/01/07 09:32:33;;;;;;;2.70;1.90;;;-0.10;96.30;;;;;;4900495;29;20463;-76
2022/01/07 09:34:58;;;;;;;6.93;2.70;;;-0.10;96.30;;;;;;4898649;29;20793;-77
2022/01/07 09:37:24;;;;;;;5.40;2.40;;;0.00;96.30;;;;;;4899502;29;20185;-77
2022/01/07 09:39:49;;;;;;;6.70;3.30;;;0.10;96.30;;;;;;4912737;29;20586;-74
2022/01/07 09:42:15;;;;;;;8.97;2.80;;;0.10;96.30;;;;;;4912757;29;20196;-78
2022/01/07 09:44:42;;;;;;;7.27;2.63;;;0.30;96.30;;;;;;4902644;29;20173;-78
2022/01/07 09:47:11;;;;;;;3.40;1.93;;;0.20;96.30;;;;;;4918398;29;20279;-79
2022/01/07 09:49:40;;;;;;;6.10;2.30;;;0.30;96.30;;;;;;4909481;29;20428;-78
2022/01/07 09:52:07;;;;;;;4.80;2.13;;;0.20;96.30;;;;;;4916056;29;20447;-74
2022/01/07 09:54:34;;;;;;;8.77;2.80;;;0.30;96.30;;;;;;4918444;29;20424;-74
2022/01/07 09:57:00;;;;;;;6.20;3.00;;;0.30;96.30;;;;;;4898807;29;20793;-76
2022/01/07 09:59:25;;;;;;;7.00;3.43;;;0.40;96.30;;;;;;4896219;29;20439;-78
2022/01/07 10:02:06;;;;;;;4.37;2.53;;;0.40;96.30;;;;;;4897935;29;20208;-79
2022/01/07 10:04:34;;;;;;;3.90;1.93;;;0.40;96.30;;;;;;4914506;29;20184;-77
2022/01/07 10:07:13;;;;;;;5.60;1.97;;;0.40;96.30;;;;;;4917201;29;20491;-77
2022/01/07 10:09:40;;;;;;;4.83;2.27;;;0.50;96.30;;;;;;4897391;29;20423;-79
2022/01/07 10:12:07;;;;;;;10.90;2.70;;;0.50;96.30;;;;;;4898299;29;20448;-75
2022/01/07 10:14:34;;;;;;;7.00;2.50;;;0.50;96.30;;;;;;4922356;29;20440;-78
2022/01/07 10:17:01;;;;;;;4.53;2.20;;;0.70;96.30;;;;;;4917826;29;20420;-78
2022/01/07 10:19:41;;;;;;;10.23;2.30;;;0.70;96.30;;;;;;4912831;29;20433;-76
2022/01/07 10:22:12;;;;;;;5.43;2.50;;;0.70;96.30;;;;;;4908361;29;20996;-75
2022/01/07 10:24:56;;;;;;;4.13;1.90;;;0.70;96.30;;;;;;4915439;29;20410;-74
2022/01/07 10:27:25;;;;;;;6.33;2.60;;;0.90;96.30;;;;;;4897417;29;20455;-75
2022/01/07 10:29:51;;;;;;;3.80;2.23;;;0.90;96.30;;;;;;4901114;29;20519;-74
2022/01/07 10:32:31;;;;;;;5.37;2.83;;;0.90;96.30;;;;;;4904030;29;20985;-76
2022/01/07 10:35:09;;;;;;;2.63;1.60;;;1.20;96.30;;;;;;4908613;29;20426;-73
2022/01/07 10:37:46;;;;;;;4.40;2.53;;;1.40;96.30;;;;;;4918252;29;20423;-73
2022/01/07 10:40:33;;;;;;;4.50;2.77;;;1.50;96.30;;;;;;4886464;29;20516;-74
2022/01/07 10:43:22;;;;;;;2.73;2.10;;;1.50;96.30;;;;;;4917047;29;20586;-75
2022/01/07 10:45:50;;;;;;;6.83;2.30;;;1.90;96.30;;;;;;4917087;29;20427;-74
2022/01/07 10:48:18;;;;;;;6.27;2.80;;;2.10;96.30;;;;;;4903405;29;20530;-74
2022/01/07 10:50:46;;;;;;;7.37;2.83;;;2.40;96.30;;;;;;4914532;29;20507;-74
2022/01/07 10:53:18;;;;;;;8.03;3.33;;;2.30;96.30;;;;;;4903906;29;20425;-74
2022/01/07 10:56:05;;;;;;;8.90;3.87;;;2.40;96.30;;;;;;4911900;29;20507;-78
2022/01/07 10:58:55;;;;;;;4.07;2.27;;;2.60;96.30;;;;;;4901113;29;20496;-75
2022/01/07 11:01:21;;;;;;;3.47;2.50;;;2.90;96.30;;;;;;4916015;29;20444;-74
2022/01/07 11:03:47;;;;;;;4.80;2.60;;;3.10;96.30;;;;;;4916949;29;20471;-74
2022/01/07 11:06:13;;;;;;;5.63;2.43;;;2.70;96.30;;;;;;4917137;29;20292;-74
2022/01/07 11:08:40;;;;;;;4.20;2.13;;;3.00;96.30;;;;;;4917130;29;20887;-74
2022/01/07 11:11:08;;;;;;;3.73;2.27;;;3.20;96.30;;;;;;4916920;29;20446;-74
2022/01/07 11:13:35;;;;;;;5.07;2.43;;;3.40;96.30;;;;;;4910464;29;20494;-78
2022/01/07 11:16:02;;;;;;;7.03;4.50;;;3.70;96.30;;;;;;4903796;29;20427;-74
2022/01/07 11:18:28;;;;;;;9.23;6.67;;;3.50;96.30;;;;;;4900520;29;20909;-73
2022/01/07 12:33:19;;;;;;;10.10;3.60;;;1.30;96.30;;;;;;4872466;29;20494;-73
2022/01/07 12:35:45;;;;;;;6.33;3.77;;;1.40;96.30;;;;;;4878300;29;20421;-74
2022/01/07 12:38:19;;;;;;;4.27;2.23;;;1.40;96.30;;;;;;4878660;29;20186;-73
2022/01/07 13:01:30;;;;;;;11.37;6.40;;;1.20;96.30;;;;;;5649726;23;21110;-74
2022/01/07 13:04:10;;;;;;;4.77;3.00;;;1.10;96.30;;;;;;4906425;29;20413;-74
2022/01/07 13:06:39;;;;;;;8.67;3.47;;;1.10;96.30;;;;;;4901654;29;20495;-74
2022/01/07 13:09:05;;;;;;;11.90;6.30;;;1.00;96.30;;;;;;4900564;29;20421;-76
2022/01/07 13:11:30;;;;;;;52.17;19.83;;;1.10;96.30;;;;;;4900374;29;20448;-76
2022/01/07 13:14:07;;;;;;;6.97;3.40;;;1.10;96.30;;;;;;4899739;29;20184;-76
2022/01/07 13:16:34;;;;;;;15.43;9.57;;;1.00;96.30;;;;;;4899078;29;20184;-76
2022/01/07 13:19:10;;;;;;;15.33;7.33;;;1.00;96.30;;;;;;4899556;29;20429;-76
2022/01/07 13:21:38;;;;;;;11.63;4.10;;;0.90;96.30;;;;;;4896906;29;20594;-76
2022/01/07 13:24:05;;;;;;;16.80;5.93;;;0.90;96.30;;;;;;4872047;29;20965;-75
2022/01/07 13:26:33;;;;;;;30.47;9.87;;;0.90;96.30;;;;;;4899002;29;20425;-75
2022/01/07 13:29:24;;;;;;;26.87;12.17;;;0.90;96.30;;;;;;4907126;29;20420;-76
2022/01/07 13:32:02;;;;;;;13.80;7.00;;;0.90;96.30;;;;;;4905606;29;20444;-77
2022/01/07 13:34:33;;;;;;;24.10;12.90;;;0.90;96.30;;;;;;4905129;29;20416;-77
2022/01/07 13:37:19;;;;;;;6.23;2.43;;;0.90;96.30;;;;;;4899751;29;20520;-76
2022/01/07 13:39:51;;;;;;;15.13;9.13;;;0.90;96.30;;;;;;4899478;29;20785;-76
2022/01/07 13:42:25;;;;;;;8.67;6.13;;;0.90;96.30;;;;;;4899668;29;20584;-75
2022/01/07 13:44:57;;;;;;;6.37;4.87;;;0.90;96.30;;;;;;4899603;29;20471;-77
2022/01/07 13:47:28;;;;;;;4.87;2.60;;;0.90;96.30;;;;;;4899364;29;20457;-76
2022/01/07 13:50:07;;;;;;;4.63;3.00;;;0.90;96.30;;;;;;4899356;29;20428;-75
2022/01/07 13:52:33;;;;;;;7.33;4.00;;;0.90;96.30;;;;;;4899415;29;20429;-73
2022/01/07 13:54:59;;;;;;;5.70;2.80;;;0.90;96.30;;;;;;4899090;29;20913;-76
2022/01/07 13:57:30;;;;;;;10.50;3.37;;;0.90;96.30;;;;;;4899168;29;20509;-76
2022/01/07 13:59:56;;;;;;;7.60;3.70;;;0.80;96.30;;;;;;4899559;29;20417;-75
2022/01/07 14:02:24;;;;;;;9.90;4.60;;;0.80;96.30;;;;;;4899224;29;20453;-76
2022/01/07 14:04:58;;;;;;;9.07;5.37;;;0.80;96.30;;;;;;4899402;29;20188;-76
2022/01/07 14:07:37;;;;;;;5.23;2.57;;;0.80;96.30;;;;;;4899488;29;20466;-77
2022/01/07 14:10:26;;;;;;;10.07;4.97;;;0.70;96.30;;;;;;4889573;29;20430;-75
2022/01/07 14:12:55;;;;;;;10.23;4.00;;;0.70;96.30;;;;;;4895484;29;20845;-77
2022/01/07 14:15:52;;;;;;;10.30;5.27;;;0.60;96.30;;;;;;4899090;29;20910;-75
2022/01/07 14:18:22;;;;;;;9.47;6.60;;;0.60;96.30;;;;;;4910787;29;20515;-73
2022/01/07 14:20:56;;;;;;;14.37;9.33;;;0.40;96.30;;;;;;4904829;29;20464;-73
2022/01/07 14:23:29;;;;;;;8.87;5.33;;;0.40;96.30;;;;;;4880572;29;20747;-73
2022/01/07 14:26:03;;;;;;;4.43;2.13;;;0.30;96.30;;;;;;4863747;29;20425;-74
2022/01/07 14:28:29;;;;;;;4.17;2.17;;;0.20;96.30;;;;;;4899041;29;20870;-73
2022/01/07 14:30:55;;;;;;;8.43;4.50;;;0.20;96.30;;;;;;4898789;29;20473;-74
2022/01/07 14:33:20;;;;;;;7.30;3.57;;;0.10;96.30;;;;;;4898610;29;20248;-72
2022/01/07 14:35:47;;;;;;;4.87;2.90;;;0.10;96.30;;;;;;4898933;29;20181;-73
2022/01/07 14:38:16;;;;;;;6.37;3.63;;;0.00;96.30;;;;;;4898882;29;20549;-76
2022/01/07 14:40:42;;;;;;;6.83;3.30;;;0.00;96.30;;;;;;4898632;29;20833;-73
2022/01/07 14:43:15;;;;;;;9.93;6.30;;;-0.10;96.30;;;;;;4898623;29;20420;-77
2022/01/07 14:45:40;;;;;;;17.07;10.40;;;-0.10;96.30;;;;;;4881912;29;20444;-73
2022/01/07 14:48:07;;;;;;;6.03;4.00;;;-0.10;96.30;;;;;;4898230;29;20492;-75
2022/01/07 14:50:34;;;;;;;3.90;2.73;;;-0.20;96.30;;;;;;4898672;29;20437;-72
2022/01/07 14:52:59;;;;;;;6.73;4.37;;;-0.20;96.30;;;;;;4898674;29;20189;-75
2022/01/07 14:55:32;;;;;;;12.60;4.60;;;-0.20;96.30;;;;;;4898367;29;20513;-77
2022/01/07 14:57:58;;;;;;;9.57;5.37;;;-0.20;96.30;;;;;;4898470;29;20577;-73
2022/01/07 15:00:24;;;;;;;16.23;9.20;;;-0.20;96.30;;;;;;4898334;29;20421;-75
2022/01/07 15:02:49;;;;;;;7.03;3.77;;;-0.30;96.30;;;;;;4898121;29;20563;-72
2022/01/07 15:05:15;;;;;;;12.80;5.20;;;-0.30;96.30;;;;;;4897996;29;20189;-71
2022/01/07 15:07:41;;;;;;;6.47;4.27;;;-0.30;96.30;;;;;;4897142;29;20240;-73
2022/01/07 15:10:08;;;;;;;4.07;2.93;;;-0.20;96.30;;;;;;4898125;29;20181;-76
2022/01/07 15:12:34;;;;;;;18.60;10.20;;;-0.30;96.30;;;;;;4897833;29;20441;-76
2022/01/07 15:15:00;;;;;;;3.80;2.60;;;-0.20;96.30;;;;;;4881113;29;20421;-76
2022/01/07 15:17:26;;;;;;;9.33;6.33;;;-0.20;96.30;;;;;;4897358;29;20492;-76
2022/01/07 15:19:51;;;;;;;9.40;6.50;;;-0.20;96.30;;;;;;4909773;29;20907;-72
2022/01/07 15:22:17;;;;;;;11.83;6.50;;;-0.20;96.30;;;;;;4891305;29;20205;-73
2022/01/07 15:24:42;;;;;;;9.90;5.10;;;-0.20;96.30;;;;;;4907213;29;20181;-76
2022/01/07 15:27:09;;;;;;;6.57;3.30;;;-0.20;96.30;;;;;;4904712;29;20212;-76
2022/01/07 15:29:35;;;;;;;12.97;4.87;;;-0.10;96.30;;;;;;4891704;29;20656;-75
2022/01/07 15:32:00;;;;;;;22.90;9.13;;;-0.10;96.30;;;;;;4884384;29;20441;-75
2022/01/07 15:34:26;;;;;;;20.57;7.30;;;-0.10;96.30;;;;;;4884266;29;20177;-76
2022/01/07 15:36:52;;;;;;;15.80;7.17;;;-0.10;96.30;;;;;;4894670;29;20189;-76
2022/01/07 15:39:20;;;;;;;13.67;7.37;;;-0.10;96.30;;;;;;4908354;29;20188;-75
2022/01/07 15:41:46;;;;;;;12.40;6.80;;;-0.10;96.30;;;;;;4908978;29;20914;-77
2022/01/07 15:44:12;;;;;;;6.67;2.97;;;-0.10;96.30;;;;;;4902044;29;20532;-72
2022/01/07 15:46:38;;;;;;;12.33;5.30;;;-0.10;96.30;;;;;;4903363;29;21020;-72
2022/01/07 15:49:04;;;;;;;12.03;4.80;;;-0.20;96.30;;;;;;4902905;29;20233;-75
2022/01/07 15:51:30;;;;;;;5.20;3.27;;;-0.20;96.30;;;;;;4899531;29;20193;-72
2022/01/07 15:53:56;;;;;;;4.83;3.23;;;-0.20;96.30;;;;;;4898103;29;20492;-76
2022/01/07 15:56:22;;;;;;;3.50;2.47;;;-0.20;96.30;;;;;;4895671;29;20244;-75
2022/01/07 15:58:50;;;;;;;5.00;3.03;;;-0.30;96.30;;;;;;4895376;29;20417;-76
2022/01/07 16:01:17;;;;;;;5.67;2.97;;;-0.30;96.30;;;;;;4895095;29;20240;-75
2022/01/07 16:03:44;;;;;;;4.37;2.77;;;-0.40;96.30;;;;;;4892897;29;20413;-75
2022/01/07 16:06:10;;;;;;;4.73;3.37;;;-0.40;96.30;;;;;;4879238;29;20505;-75
2022/01/07 16:08:35;;;;;;;6.87;2.60;;;-0.50;96.30;;;;;;4900872;29;20555;-72
2022/01/07 16:11:01;;;;;;;4.40;2.63;;;-0.50;96.30;;;;;;4899126;29;20193;-77
2022/01/07 16:13:26;;;;;;;7.20;4.10;;;-0.50;96.30;;;;;;4895161;29;20188;-77
2022/01/07 16:15:52;;;;;;;7.90;3.93;;;-0.50;96.30;;;;;;4896946;29;20629;-75
2022/01/07 16:18:18;;;;;;;6.40;3.93;;;-0.50;96.30;;;;;;4878896;29;20550;-76
2022/01/07 16:20:43;;;;;;;7.13;4.20;;;-0.50;96.30;;;;;;4880043;29;20260;-76
2022/01/07 16:23:10;;;;;;;7.07;3.70;;;-0.50;96.30;;;;;;4892746;29;20223;-76
2022/01/07 16:25:37;;;;;;;8.60;4.20;;;-0.50;96.30;;;;;;4894662;29;20853;-75
2022/01/07 16:28:04;;;;;;;6.83;4.27;;;-0.50;96.30;;;;;;4895535;29;20811;-74
2022/01/07 16:30:30;;;;;;;6.27;3.60;;;-0.50;96.30;;;;;;4883200;29;20441;-77
2022/01/07 16:32:55;;;;;;;3.50;2.70;;;-0.50;96.30;;;;;;4873622;29;20428;-76
2022/01/07 16:35:21;;;;;;;6.27;3.20;;;-0.50;96.30;;;;;;4895274;29;20181;-75
2022/01/07 16:37:47;;;;;;;7.30;4.20;;;-0.50;96.30;;;;;;4877472;29;20580;-76
2022/01/07 16:40:15;;;;;;;7.87;4.00;;;-0.50;96.30;;;;;;4899899;29;20440;-73
2022/01/07 16:42:40;;;;;;;9.33;4.53;;;-0.60;96.30;;;;;;4906270;29;20173;-74
2022/01/07 16:45:08;;;;;;;7.43;3.70;;;-0.60;96.30;;;;;;4908232;29;20455;-76
2022/01/07 16:47:34;;;;;;;7.20;4.27;;;-0.60;96.30;;;;;;4887584;29;20215;-74
2022/01/07 16:50:00;;;;;;;5.07;2.93;;;-0.60;96.30;;;;;;4887548;29;20433;-75
2022/01/07 16:52:28;;;;;;;18.50;13.67;;;-0.60;96.30;;;;;;4900893;29;20295;-75
2022/01/07 16:54:58;;;;;;;11.10;8.30;;;-0.60;96.30;;;;;;4876543;29;20850;-76
2022/01/07 16:57:24;;;;;;;4.20;3.80;;;-0.60;96.30;;;;;;4899881;29;20425;-76
2022/01/07 16:59:50;;;;;;;4.50;4.07;;;-0.50;96.30;;;;;;4883434;29;20938;-71
2022/01/07 17:02:16;;;;;;;11.50;5.60;;;-0.50;96.30;;;;;;4907399;29;20465;-72
2022/01/07 17:04:42;;;;;;;5.07;3.73;;;-0.50;96.30;;;;;;4902304;29;20429;-76
2022/01/07 17:07:07;;;;;;;6.53;4.47;;;-0.50;96.30;;;;;;4900255;29;20216;-76
2022/01/07 17:09:33;;;;;;;5.73;3.90;;;-0.50;96.30;;;;;;4900270;29;20236;-76
2022/01/07 17:11:59;;;;;;;6.70;4.20;;;-0.50;96.30;;;;;;4899918;29;20212;-76
2022/01/07 17:14:24;;;;;;;7.93;3.20;;;-0.50;96.30;;;;;;4882984;29;20181;-75
2022/01/07 17:16:50;;;;;;;5.17;3.40;;;-0.50;96.30;;;;;;4900787;29;20538;-75
2022/01/07 17:19:16;;;;;;;5.33;3.97;;;-0.50;96.30;;;;;;4882669;29;20188;-75
2022/01/07 17:26:52;;;;;;;5.00;3.63;;;-0.50;96.30;;;;;;5051199;23;20590;-74
2022/01/07 17:29:18;;;;;;;7.50;4.10;;;-0.50;96.30;;;;;;4918863;29;20417;-77
2022/01/07 17:31:43;;;;;;;7.30;6.10;;;-0.50;96.30;;;;;;4899569;29;20569;-77
2022/01/07 17:34:09;;;;;;;4.77;4.27;;;-0.50;96.30;;;;;;4917495;29;20180;-76
2022/01/07 17:36:37;;;;;;;4.87;4.47;;;-0.40;96.30;;;;;;4912489;29;20199;-77
2022/01/07 17:39:03;;;;;;;6.87;5.40;;;-0.50;96.30;;;;;;4915715;29;20255;-77
2022/01/07 17:41:31;;;;;;;11.40;6.40;;;-0.50;96.30;;;;;;4907287;29;20464;-77
2022/01/07 17:43:57;;;;;;;7.93;4.97;;;-0.40;96.30;;;;;;4900124;29;20499;-77
2022/01/07 17:46:23;;;;;;;9.93;5.60;;;-0.40;96.30;;;;;;4899240;29;20416;-74
2022/01/07 17:48:49;;;;;;;6.63;5.60;;;-0.50;96.30;;;;;;4917942;29;20892;-76
2022/01/07 17:51:14;;;;;;;8.37;6.20;;;-0.40;96.30;;;;;;4911342;29;20276;-76
2022/01/07 17:53:40;;;;;;;6.33;4.57;;;-0.40;96.30;;;;;;4905728;29;21165;-76
2022/01/07 17:56:05;;;;;;;11.90;9.90;;;-0.50;96.30;;;;;;4895709;29;20207;-71
2022/01/07 17:58:31;;;;;;;5.40;4.50;;;-0.40;96.30;;;;;;4918428;29;20176;-71
2022/01/07 18:00:56;;;;;;;9.77;4.93;;;-0.40;96.30;;;;;;4909364;29;20208;-75
2022/01/07 18:03:22;;;;;;;3.37;3.03;;;-0.40;96.30;;;;;;4889974;29;20925;-75
2022/01/07 18:05:47;;;;;;;5.53;3.63;;;-0.40;96.30;;;;;;4900597;29;20330;-74
2022/01/07 18:08:13;;;;;;;4.97;3.53;;;-0.40;96.30;;;;;;4917945;29;20310;-75
2022/01/07 18:10:39;;;;;;;7.00;5.40;;;-0.40;96.30;;;;;;4901891;29;20273;-73
2022/01/07 18:13:05;;;;;;;4.67;3.80;;;-0.40;96.30;;;;;;4882761;29;20490;-73
2022/01/07 18:15:31;;;;;;;5.47;4.07;;;-0.40;96.30;;;;;;4899267;29;20417;-73
2022/01/07 18:17:57;;;;;;;4.60;2.50;;;-0.40;96.30;;;;;;4904277;29;20187;-72
2022/01/07 18:20:22;;;;;;;4.23;2.90;;;-0.40;96.30;;;;;;4909116;29;20420;-74
2022/01/07 18:22:48;;;;;;;2.90;2.30;;;-0.40;96.30;;;;;;4910882;29;20259;-71
2022/01/07 18:25:14;;;;;;;4.20;3.10;;;-0.40;96.30;;;;;;4917629;29;20271;-71
2022/01/07 18:27:40;;;;;;;6.03;4.40;;;-0.30;96.30;;;;;;4916443;29;20551;-71
2022/01/07 18:30:06;;;;;;;12.13;9.00;;;-0.30;96.30;;;;;;4917410;29;20176;-71
2022/01/07 18:32:32;;;;;;;4.23;2.93;;;-0.30;96.30;;;;;;4914086;29;20437;-70
2022/01/07 18:34:58;;;;;;;5.93;4.17;;;-0.20;96.30;;;;;;4912361;29;20527;-71
2022/01/07 18:37:23;;;;;;;4.03;2.73;;;-0.20;96.30;;;;;;4904535;29;20267;-71
2022/01/07 18:39:52;;;;;;;2.30;2.10;;;-0.20;96.30;;;;;;4917725;29;20180;-75
2022/01/07 18:42:17;;;;;;;3.50;2.60;;;-0.20;96.30;;;;;;4900593;29;20300;-72
2022/01/07 18:44:43;;;;;;;3.50;2.80;;;-0.10;96.30;;;;;;4900599;29;20460;-74
2022/01/07 18:47:11;;;;;;;3.67;3.30;;;-0.20;96.30;;;;;;4917111;29;20964;-74
2022/01/07 18:49:42;;;;;;;1.90;1.60;;;-0.20;96.30;;;;;;4899690;29;20172;-72
2022/01/07 18:52:07;;;;;;;5.40;3.07;;;-0.20;96.30;;;;;;4899290;29;20959;-74
2022/01/07 18:54:33;;;;;;;5.27;3.30;;;-0.10;96.30;;;;;;4900025;29;20424;-74
2022/01/07 18:56:59;;;;;;;4.50;3.73;;;-0.10;96.30;;;;;;4916608;29;20196;-74
2022/01/07 18:59:24;;;;;;;3.20;2.90;;;-0.20;96.30;;;;;;4915948;29;20234;-73
2022/01/07 19:01:50;;;;;;;3.50;3.20;;;-0.20;96.30;;;;;;4917129;29;20196;-73
2022/01/07 19:04:15;;;;;;;3.70;2.83;;;-0.30;96.30;;;;;;4906829;29;20570;-75
2022/01/07 19:06:41;;;;;;;3.80;2.70;;;-0.40;96.30;;;;;;4894739;29;20184;-75
2022/01/07 19:09:07;;;;;;;3.13;2.50;;;-0.50;96.30;;;;;;4906493;29;20184;-75
2022/01/07 19:11:32;;;;;;;2.93;2.60;;;-0.50;96.30;;;;;;4907307;29;20617;-73
2022/01/07 19:13:58;;;;;;;3.57;3.00;;;-0.40;96.30;;;;;;4899504;29;20187;-73
2022/01/07 19:16:24;;;;;;;2.73;2.53;;;-0.30;96.30;;;;;;4911167;29;20216;-74
2022/01/07 19:18:49;;;;;;;3.87;2.87;;;-0.40;96.30;;;;;;4881043;29;20181;-71
2022/01/07 19:21:15;;;;;;;4.80;2.83;;;-0.40;96.30;;;;;;4897705;29;20201;-70
2022/01/07 19:23:41;;;;;;;2.70;2.50;;;-0.50;96.30;;;;;;4897835;29;20558;-72
2022/01/07 19:26:09;;;;;;;4.20;2.87;;;-0.50;96.30;;;;;;4898013;29;20664;-75
2022/01/07 19:28:34;;;;;;;3.30;2.30;;;-0.50;96.30;;;;;;4905014;29;20215;-74
2022/01/07 19:31:00;;;;;;;2.83;2.60;;;-0.70;96.30;;;;;;4899152;29;20432;-75
2022/01/07 19:33:25;;;;;;;2.77;2.50;;;-0.70;96.30;;;;;;4891666;29;20424;-74
2022/01/07 19:35:51;;;;;;;4.33;2.90;;;-0.70;96.30;;;;;;4907449;29;20181;-75
2022/01/07 19:38:17;;;;;;;3.87;2.70;;;-0.50;96.30;;;;;;4904612;29;20183;-75
2022/01/07 19:40:42;;;;;;;3.63;3.33;;;-0.40;96.30;;;;;;4915050;29;20200;-75
2022/01/07 19:43:09;;;;;;;4.33;2.50;;;-0.40;96.30;;;;;;4912643;29;20219;-75